createdAt,value
2023-03-02T00:01:10.768Z,35.46
2023-03-02T00:03:40.998Z,35.04
2023-03-02T00:06:09.221Z,35.59
2023-03-02T00:08:38.083Z,35.55
2023-03-02T00:11:04.866Z,35.66
2023-03-02T00:13:51.395Z,35.63
2023-03-02T00:16:18.088Z,35.39
2023-03-02T00:18:44.922Z,36.95
2023-03-02T00:21:11.485Z,36.00
2023-03-02T00:23:38.237Z,36.40
2023-03-02T00:26:06.156Z,35.69
2023-03-02T00:28:33.988Z,36.14
2023-03-02T00:31:04.548Z,36.02
2023-03-02T00:33:32.325Z,36.52
2023-03-02T00:35:58.878Z,35.89
2023-03-02T00:38:25.392Z,36.19
2023-03-02T00:40:51.874Z,36.53
2023-03-02T00:43:18.343Z,35.90
2023-03-02T00:45:45.145Z,36.19
2023-03-02T00:48:11.633Z,36.64
2023-03-02T00:50:38.279Z,37.58
2023-03-02T00:53:04.916Z,36.61
2023-03-02T00:55:31.422Z,37.75
2023-03-02T00:57:57.898Z,36.37
2023-03-02T01:00:24.672Z,36.97
2023-03-02T01:02:51.211Z,36.80
2023-03-02T01:05:17.885Z,36.77
2023-03-02T01:07:44.432Z,36.88
2023-03-02T01:10:11.613Z,37.40
2023-03-02T01:12:38.355Z,36.92
2023-03-02T01:15:06.449Z,36.58
2023-03-02T01:21:20.365Z,36.78
2023-03-02T01:23:46.885Z,36.74
2023-03-02T01:26:13.524Z,36.84
2023-03-02T01:28:40.056Z,37.20
2023-03-02T01:31:06.600Z,37.02
2023-03-02T01:33:33.138Z,37.78
2023-03-02T01:35:59.801Z,37.57
2023-03-02T01:38:26.583Z,36.48
2023-03-02T01:40:53.152Z,36.80
2023-03-02T01:43:19.821Z,37.00
2023-03-02T01:46:06.956Z,36.60
2023-03-02T01:48:42.702Z,36.57
2023-03-02T01:51:16.197Z,37.99
2023-03-02T01:53:47.986Z,37.26
2023-03-02T01:56:21.463Z,37.05
2023-03-02T01:58:54.072Z,37.58
2023-03-02T02:01:21.890Z,36.22
2023-03-02T02:03:51.072Z,36.09
2023-03-02T02:06:24.105Z,37.00
2023-03-02T02:08:54.407Z,36.64
2023-03-02T02:11:20.959Z,36.11
2023-03-02T02:13:47.954Z,35.47
2023-03-02T02:16:14.534Z,36.18
2023-03-02T02:18:44.295Z,36.49
2023-03-02T02:21:11.622Z,36.13
2023-03-02T02:24:23.037Z,36.42
2023-03-02T02:26:52.911Z,35.71
2023-03-02T02:29:32.215Z,35.78
2023-03-02T02:32:15.775Z,36.31
2023-03-02T02:34:47.358Z,35.73
2023-03-02T02:37:25.854Z,35.46
2023-03-02T02:39:52.536Z,35.12
2023-03-02T02:42:34.026Z,35.12
2023-03-02T02:45:06.696Z,35.34
2023-03-02T02:47:34.094Z,35.39
2023-03-02T02:50:01.147Z,35.32
2023-03-02T02:52:29.383Z,35.96
2023-03-02T02:54:58.308Z,35.19
2023-03-02T02:57:29.754Z,34.84
2023-03-02T03:00:00.233Z,35.78
2023-03-02T03:02:32.973Z,35.27
2023-03-02T03:04:59.506Z,35.24
2023-03-02T03:07:26.106Z,36.17
2023-03-02T03:10:24.544Z,35.75
2023-03-02T03:12:51.639Z,35.34
2023-03-02T03:15:18.836Z,35.41
2023-03-02T03:17:54.178Z,36.40
2023-03-02T03:20:22.643Z,34.93
2023-03-02T03:22:49.140Z,36.17
2023-03-02T03:25:15.728Z,36.31
2023-03-02T03:27:42.986Z,36.53
2023-03-02T03:30:14.700Z,37.35
2023-03-02T03:32:41.524Z,36.40
2023-03-02T03:35:08.897Z,36.51
2023-03-02T03:37:36.478Z,37.10
2023-03-02T03:40:03.313Z,36.08
2023-03-02T03:42:29.808Z,35.81
2023-03-02T03:44:56.354Z,36.56
2023-03-02T03:47:22.894Z,36.67
2023-03-02T03:49:49.395Z,37.12
2023-03-02T03:52:15.909Z,37.31
2023-03-02T03:54:42.413Z,37.66
2023-03-02T03:57:08.892Z,36.48
2023-03-02T03:59:35.358Z,37.35
2023-03-02T04:02:02.443Z,37.73
2023-03-02T04:04:33.917Z,38.10
2023-03-02T04:07:00.773Z,38.44
2023-03-02T04:09:27.539Z,38.60
2023-03-02T04:11:56.983Z,38.38
2023-03-02T04:14:24.799Z,37.36
2023-03-02T04:16:52.106Z,37.72
2023-03-02T04:19:18.944Z,37.37
2023-03-02T04:21:49.106Z,38.07
2023-03-02T04:24:17.484Z,38.44
2023-03-02T04:26:45.684Z,37.43
2023-03-02T04:29:13.756Z,38.05
2023-03-02T04:31:40.916Z,37.71
2023-03-02T04:34:08.638Z,38.18
2023-03-02T04:36:39.073Z,37.85
2023-03-02T04:39:07.085Z,37.76
2023-03-02T04:41:34.150Z,37.91
2023-03-02T04:44:00.645Z,37.31
2023-03-02T04:46:28.185Z,37.87
2023-03-02T04:48:55.305Z,37.17
2023-03-02T04:51:29.528Z,36.81
2023-03-02T04:53:59.741Z,36.88
2023-03-02T04:56:26.891Z,36.90
2023-03-02T04:58:53.444Z,36.62
2023-03-02T05:01:20.900Z,37.42
2023-03-02T05:03:48.337Z,36.83
2023-03-02T05:06:15.604Z,38.53
2023-03-02T05:08:42.936Z,38.01
2023-03-02T05:11:12.936Z,38.46
2023-03-02T05:13:39.423Z,38.13
2023-03-02T05:16:06.155Z,39.26
2023-03-02T05:18:32.733Z,38.63
2023-03-02T05:20:59.203Z,38.84
2023-03-02T05:23:26.053Z,38.70
2023-03-02T05:25:56.194Z,38.07
2023-03-02T05:28:25.288Z,37.39
2023-03-02T05:30:52.670Z,37.14
2023-03-02T05:33:20.189Z,37.80
2023-03-02T05:35:47.336Z,38.32
2023-03-02T05:38:14.778Z,37.82
2023-03-02T05:40:41.549Z,37.72
2023-03-02T05:43:08.833Z,38.45
2023-03-02T05:45:38.272Z,37.76
2023-03-02T05:48:05.750Z,37.64
2023-03-02T05:50:32.285Z,36.62
2023-03-02T05:52:59.177Z,37.85
2023-03-02T05:55:26.503Z,38.75
2023-03-02T05:57:52.983Z,38.28
2023-03-02T06:00:20.702Z,37.60
2023-03-02T06:02:47.784Z,37.97
2023-03-02T06:05:17.878Z,38.31
2023-03-02T06:07:45.032Z,38.52
2023-03-02T06:10:12.942Z,37.60
2023-03-02T06:12:40.092Z,37.70
2023-03-02T06:15:07.824Z,37.46
2023-03-02T06:17:34.686Z,37.59
2023-03-02T06:20:01.286Z,37.08
2023-03-02T06:22:27.863Z,37.45
2023-03-02T06:24:54.524Z,37.26
2023-03-02T06:27:21.370Z,36.38
2023-03-02T06:29:47.859Z,37.26
2023-03-02T06:32:14.455Z,37.16
2023-03-02T06:34:41.052Z,38.05
2023-03-02T06:37:07.567Z,37.29
2023-03-02T06:39:34.102Z,37.48
2023-03-02T06:42:03.504Z,37.28
2023-03-02T06:45:08.953Z,37.65
2023-03-02T06:47:39.152Z,37.19
2023-03-02T06:50:06.316Z,36.79
2023-03-02T06:52:33.268Z,37.03
2023-03-02T06:55:03.018Z,37.14
2023-03-02T06:57:29.641Z,37.46
2023-03-02T06:59:56.110Z,37.76
2023-03-02T07:02:22.606Z,38.23
2023-03-02T07:04:49.124Z,38.50
2023-03-02T07:07:15.615Z,37.85
2023-03-02T07:09:42.258Z,38.09
2023-03-02T07:12:08.781Z,37.16
2023-03-02T07:14:35.849Z,36.36
2023-03-02T07:17:05.171Z,36.58
2023-03-02T07:19:31.694Z,37.60
2023-03-02T07:21:58.168Z,37.97
2023-03-02T07:24:24.682Z,37.65
2023-03-02T07:26:51.260Z,38.14
2023-03-02T07:29:17.723Z,38.08
2023-03-02T07:31:44.249Z,36.84
2023-03-02T07:34:10.760Z,36.92
2023-03-02T07:36:37.242Z,37.60
2023-03-02T07:39:04.227Z,37.86
2023-03-02T07:41:31.150Z,38.24
2023-03-02T07:43:57.909Z,37.27
2023-03-02T07:46:24.463Z,37.93
2023-03-02T07:48:51.017Z,37.65
2023-03-02T07:51:17.532Z,36.90
2023-03-02T07:53:44.179Z,37.98
2023-03-02T07:56:11.660Z,37.08
2023-03-02T07:58:38.407Z,37.77
2023-03-02T08:01:05.110Z,37.21
2023-03-02T08:03:31.630Z,37.30
2023-03-02T08:05:58.128Z,37.57
2023-03-02T08:08:24.758Z,37.44
2023-03-02T08:10:51.377Z,37.09
2023-03-02T08:13:17.871Z,37.24
2023-03-02T08:15:44.410Z,36.28
2023-03-02T08:18:10.898Z,37.52
2023-03-02T08:20:37.513Z,38.03
2023-03-02T08:23:04.060Z,38.14
2023-03-02T08:25:30.573Z,37.71
2023-03-02T08:27:57.045Z,38.98
2023-03-02T08:30:23.605Z,37.96
2023-03-02T08:32:50.176Z,38.36
2023-03-02T08:35:16.740Z,38.31
2023-03-02T08:37:43.258Z,38.66
2023-03-02T08:40:10.353Z,38.31
2023-03-02T08:42:36.926Z,38.46
2023-03-02T08:45:03.675Z,38.39
2023-03-02T08:47:30.160Z,38.31
2023-03-02T08:49:56.641Z,38.49
2023-03-02T08:52:23.128Z,38.32
2023-03-02T08:54:49.648Z,38.56
2023-03-02T08:57:16.229Z,38.09
2023-03-02T08:59:42.928Z,38.99
2023-03-02T09:02:11.844Z,39.48
2023-03-02T09:04:38.481Z,39.70
2023-03-02T09:07:05.044Z,39.48
2023-03-02T09:09:31.580Z,39.08
2023-03-02T09:11:58.106Z,38.95
2023-03-02T09:14:24.617Z,40.11
2023-03-02T09:16:51.178Z,39.15
2023-03-02T09:19:17.944Z,39.47
2023-03-02T09:21:44.705Z,39.34
2023-03-02T09:24:11.366Z,39.24
2023-03-02T09:26:37.842Z,39.40
2023-03-02T09:29:04.892Z,38.92
2023-03-02T09:31:31.484Z,39.34
2023-03-02T09:33:58.165Z,39.66
2023-03-02T09:36:26.404Z,38.68
2023-03-02T09:38:53.480Z,39.36
2023-03-02T09:41:19.983Z,39.12
2023-03-02T09:44:08.307Z,39.89
2023-03-02T09:46:47.633Z,39.38
2023-03-02T09:49:45.101Z,39.47
2023-03-02T09:52:30.958Z,39.44
2023-03-02T09:55:11.176Z,38.80
2023-03-02T09:57:39.091Z,38.18
2023-03-02T10:00:24.416Z,38.97
2023-03-02T10:02:53.943Z,38.67
2023-03-02T10:05:24.933Z,38.79
2023-03-02T10:07:51.620Z,39.08
2023-03-02T10:10:18.066Z,39.10
2023-03-02T10:13:08.815Z,39.00
2023-03-02T10:15:48.020Z,38.87
2023-03-02T10:18:23.934Z,39.11
2023-03-02T10:21:01.827Z,38.82
2023-03-02T10:23:51.313Z,38.37
2023-03-02T10:26:34.513Z,39.05
2023-03-02T10:29:30.183Z,39.22
2023-03-02T10:32:24.236Z,38.68
2023-03-02T10:34:53.079Z,38.93
2023-03-02T10:37:28.212Z,38.42
2023-03-02T10:39:55.806Z,37.88
2023-03-02T10:42:29.772Z,39.17
2023-03-02T10:45:21.805Z,38.84
2023-03-02T10:47:48.338Z,38.36
2023-03-02T10:50:22.376Z,38.41
2023-03-02T10:52:59.533Z,39.85
2023-03-02T10:55:27.203Z,38.33
2023-03-02T10:58:02.362Z,39.26
2023-03-02T11:00:31.462Z,39.01
2023-03-02T11:03:19.443Z,38.02
2023-03-02T11:05:45.921Z,38.63
2023-03-02T11:08:27.832Z,38.56
2023-03-02T11:11:03.818Z,38.74
2023-03-02T11:13:36.218Z,38.96
2023-03-02T11:16:06.645Z,37.65
2023-03-02T11:19:05.061Z,38.76
2023-03-02T11:21:38.977Z,39.11
2023-03-02T11:24:20.487Z,38.03
2023-03-02T11:26:52.707Z,38.37
2023-03-02T11:29:25.001Z,39.89
2023-03-02T11:31:58.737Z,40.10
2023-03-02T11:34:48.905Z,40.24
2023-03-02T11:37:21.238Z,37.75
2023-03-02T11:39:55.161Z,38.86
2023-03-02T11:42:31.005Z,39.71
2023-03-02T11:45:02.823Z,39.16
2023-03-02T11:47:32.301Z,39.57
2023-03-02T11:50:04.440Z,41.05
2023-03-02T11:52:37.656Z,39.70
2023-03-02T11:55:13.203Z,39.44
2023-03-02T11:57:48.779Z,39.42
2023-03-02T12:00:26.201Z,39.29
2023-03-02T12:03:07.309Z,38.46
2023-03-02T12:05:38.643Z,39.26
2023-03-02T12:08:20.372Z,39.90
2023-03-02T12:10:58.929Z,39.69
2023-03-02T12:13:57.442Z,39.08
2023-03-02T12:16:43.550Z,39.66
2023-03-02T12:19:12.681Z,40.13
2023-03-02T12:21:41.755Z,39.30
2023-03-02T12:24:25.303Z,38.82
2023-03-02T12:27:10.225Z,38.98
2023-03-02T12:29:45.869Z,39.07
2023-03-02T12:32:18.274Z,38.27
2023-03-02T12:35:02.794Z,39.03
2023-03-02T12:37:49.621Z,39.06
2023-03-02T12:40:39.109Z,38.74
2023-03-02T12:43:27.242Z,39.28
2023-03-02T12:46:10.405Z,39.83
2023-03-02T12:48:47.522Z,41.05
2023-03-02T12:51:21.566Z,40.77
2023-03-02T12:53:48.989Z,38.99
2023-03-02T12:56:26.466Z,38.92
2023-03-02T12:58:54.286Z,38.91
2023-03-02T13:01:23.845Z,39.54
2023-03-02T13:03:51.265Z,39.76
2023-03-02T13:06:20.273Z,39.16
2023-03-02T13:08:52.557Z,39.09
2023-03-02T13:11:33.030Z,39.91
2023-03-02T13:14:01.619Z,40.23
2023-03-02T13:16:31.905Z,39.72
2023-03-02T13:19:02.201Z,39.85
2023-03-02T13:21:36.290Z,39.95
2023-03-02T13:24:02.885Z,40.34
2023-03-02T13:26:37.182Z,39.42
2023-03-02T13:29:06.927Z,39.15
2023-03-02T13:31:34.813Z,39.22
2023-03-02T13:34:01.512Z,39.29
2023-03-02T13:36:36.019Z,38.90
2023-03-02T13:39:07.024Z,39.91
2023-03-02T13:41:36.214Z,38.81
2023-03-02T13:44:19.532Z,39.02
2023-03-02T13:46:47.369Z,39.41
2023-03-02T13:49:24.638Z,39.70
2023-03-02T13:52:01.201Z,39.05
2023-03-02T13:54:32.869Z,39.42
2023-03-02T13:57:03.030Z,39.62
2023-03-02T13:59:30.234Z,38.56
2023-03-02T14:01:56.767Z,39.13
2023-03-02T14:04:23.934Z,38.74
2023-03-02T14:06:52.873Z,37.78
2023-03-02T14:09:20.699Z,38.02
2023-03-02T14:11:52.557Z,38.73
2023-03-02T14:14:23.027Z,38.32
2023-03-02T14:16:50.815Z,38.48
2023-03-02T14:19:18.009Z,37.82
2023-03-02T14:21:45.806Z,37.19
2023-03-02T14:24:12.296Z,37.45
2023-03-02T14:26:44.849Z,38.29
2023-03-02T14:29:29.753Z,38.14
2023-03-02T14:31:59.227Z,38.29
2023-03-02T14:34:26.327Z,38.27
2023-03-02T14:36:58.846Z,38.26
2023-03-02T14:39:40.690Z,37.83
2023-03-02T14:42:17.022Z,37.90
2023-03-02T14:44:45.401Z,37.66
2023-03-02T14:47:12.518Z,37.96
2023-03-02T14:49:39.404Z,37.94
2023-03-02T14:52:46.690Z,38.13
2023-03-02T14:55:24.402Z,38.26
2023-03-02T14:58:05.020Z,38.04
2023-03-02T15:00:31.798Z,37.93
2023-03-02T15:02:58.787Z,37.72
2023-03-02T15:05:25.408Z,36.74
2023-03-02T15:07:51.929Z,37.04
2023-03-02T15:10:21.023Z,37.10
2023-03-02T15:12:47.640Z,36.35
2023-03-02T15:15:14.150Z,37.14
2023-03-02T15:17:41.272Z,37.29
2023-03-02T15:20:13.147Z,36.85
2023-03-02T15:22:39.626Z,37.30
2023-03-02T15:25:06.404Z,37.23
2023-03-02T15:27:32.969Z,36.87
2023-03-02T15:29:59.569Z,36.93
2023-03-02T15:32:26.161Z,36.83
2023-03-02T15:34:52.625Z,36.91
2023-03-02T15:37:19.221Z,36.57
2023-03-02T15:39:52.880Z,36.97
2023-03-02T15:42:19.654Z,35.76
2023-03-02T15:44:48.744Z,35.40
2023-03-02T15:47:15.299Z,37.04
2023-03-02T15:49:41.765Z,37.55
2023-03-02T15:52:09.774Z,37.15
2023-03-02T15:54:36.260Z,36.48
2023-03-02T15:57:02.842Z,36.88
2023-03-02T15:59:31.263Z,37.08
2023-03-02T16:01:58.499Z,36.75
2023-03-02T16:04:26.633Z,36.30
2023-03-02T16:06:53.164Z,36.43
2023-03-02T16:09:19.696Z,35.87
2023-03-02T16:11:48.878Z,36.10
2023-03-02T16:14:15.409Z,36.15
2023-03-02T16:16:43.464Z,36.46
2023-03-02T16:19:12.869Z,36.04
2023-03-02T16:21:39.488Z,36.76
2023-03-02T16:24:07.234Z,37.90
2023-03-02T16:26:36.706Z,37.24
2023-03-02T16:29:05.777Z,37.70
2023-03-02T16:31:32.355Z,38.23
2023-03-02T16:33:59.209Z,38.55
2023-03-02T16:36:27.403Z,38.52
2023-03-02T16:38:53.877Z,38.30
2023-03-02T16:41:23.285Z,38.62
2023-03-02T16:43:58.850Z,38.31
2023-03-02T16:46:28.686Z,38.15
2023-03-02T16:48:56.412Z,40.45
2023-03-02T16:51:22.909Z,39.57
2023-03-02T16:53:50.166Z,39.28
2023-03-02T16:56:16.710Z,39.88
2023-03-02T16:58:43.616Z,40.19
2023-03-02T17:01:13.677Z,40.11
2023-03-02T17:03:41.021Z,40.86
2023-03-02T17:06:10.913Z,40.26
2023-03-02T17:08:37.838Z,38.64
2023-03-02T17:11:04.515Z,39.96
2023-03-02T17:13:31.027Z,39.22
2023-03-02T17:15:58.498Z,39.83
2023-03-02T17:18:26.328Z,40.04
2023-03-02T17:20:55.027Z,41.02
2023-03-02T17:23:22.034Z,41.09
2023-03-02T17:25:48.599Z,40.95
2023-03-02T17:28:15.494Z,40.47
2023-03-02T17:30:43.260Z,41.52
2023-03-02T17:33:10.364Z,42.15
2023-03-02T17:35:37.473Z,40.74
2023-03-02T17:38:04.751Z,41.18
2023-03-02T17:40:32.193Z,41.74
2023-03-02T17:42:58.735Z,41.71
2023-03-02T17:45:27.543Z,40.83
2023-03-02T17:47:55.160Z,40.41
2023-03-02T17:50:23.187Z,40.89
2023-03-02T17:52:49.772Z,40.16
2023-03-02T17:55:16.555Z,40.34
2023-03-02T17:57:43.086Z,42.88
2023-03-02T18:00:14.918Z,41.66
2023-03-02T18:02:41.416Z,40.99
2023-03-02T18:05:08.649Z,41.08
2023-03-02T18:07:38.707Z,41.16
2023-03-02T18:10:06.646Z,41.81
2023-03-02T18:12:34.071Z,41.97
2023-03-02T18:15:00.554Z,42.29
2023-03-02T18:17:27.077Z,42.31
2023-03-02T18:19:53.563Z,42.70
2023-03-02T18:22:20.050Z,43.08
2023-03-02T18:24:46.525Z,42.74
2023-03-02T18:27:13.143Z,41.58
2023-03-02T18:29:39.649Z,40.86
2023-03-02T18:32:06.267Z,41.92
2023-03-02T18:34:32.794Z,42.50
2023-03-02T18:36:59.416Z,41.90
2023-03-02T18:39:25.948Z,41.52
2023-03-02T18:41:52.455Z,40.71
2023-03-02T18:44:19.297Z,41.11
2023-03-02T18:46:46.080Z,43.10
2023-03-02T18:49:12.726Z,43.76
2023-03-02T18:51:40.098Z,44.22
2023-03-02T18:54:06.589Z,45.67
2023-03-02T18:56:33.117Z,45.57
2023-03-02T18:58:59.605Z,43.66
2023-03-02T19:01:31.390Z,43.31
2023-03-02T19:03:57.990Z,44.11
2023-03-02T19:06:24.961Z,44.30
2023-03-02T19:08:51.570Z,45.54
2023-03-02T19:11:18.084Z,45.88
2023-03-02T19:13:44.655Z,45.19
2023-03-02T19:16:11.178Z,44.68
2023-03-02T19:18:37.810Z,45.79
2023-03-02T19:21:05.185Z,44.98
2023-03-02T19:23:32.500Z,42.86
2023-03-02T19:26:00.278Z,41.25
2023-03-02T19:28:26.932Z,40.94
2023-03-02T19:30:53.468Z,41.03
2023-03-02T19:33:20.017Z,40.54
2023-03-02T19:35:46.632Z,39.97
2023-03-02T19:38:13.140Z,39.86
2023-03-02T19:40:40.129Z,39.94
2023-03-02T19:43:06.702Z,40.61
2023-03-02T19:45:33.880Z,40.16
2023-03-02T19:48:00.711Z,39.86
2023-03-02T19:50:28.141Z,40.22
2023-03-02T19:52:56.049Z,39.85
2023-03-02T19:55:24.013Z,40.01
2023-03-02T19:57:51.770Z,40.06
2023-03-02T20:00:18.925Z,39.36
2023-03-02T20:02:47.028Z,40.46
2023-03-02T20:05:14.727Z,42.27
2023-03-02T20:07:42.023Z,42.61
2023-03-02T20:10:10.375Z,42.53
2023-03-02T20:12:37.313Z,42.72
2023-03-02T20:15:05.914Z,42.57
2023-03-02T20:17:32.624Z,43.43
2023-03-02T20:19:59.134Z,43.81
2023-03-02T20:22:25.622Z,44.04
2023-03-02T20:24:52.250Z,44.26
2023-03-02T20:27:18.833Z,44.30
2023-03-02T20:29:45.684Z,45.01
2023-03-02T20:32:13.180Z,46.46
2023-03-02T20:34:41.428Z,46.35
2023-03-02T20:37:08.152Z,45.21
2023-03-02T20:39:38.724Z,44.20
2023-03-02T20:42:06.888Z,45.22
2023-03-02T20:44:34.882Z,46.88
2023-03-02T20:47:06.356Z,45.73
2023-03-02T20:49:33.117Z,48.51
2023-03-02T20:52:00.838Z,48.82
2023-03-02T20:54:31.722Z,46.00
2023-03-02T20:56:58.997Z,47.05
2023-03-02T20:59:26.936Z,48.64
2023-03-02T21:01:53.575Z,49.42
2023-03-02T21:04:22.009Z,49.10
2023-03-02T21:06:48.699Z,48.37
2023-03-02T21:09:15.963Z,48.03
2023-03-02T21:11:42.471Z,47.06
2023-03-02T21:14:09.094Z,47.16
2023-03-02T21:16:38.837Z,46.55
2023-03-02T21:19:09.456Z,45.17
2023-03-02T21:21:41.725Z,45.10
2023-03-02T21:24:11.227Z,42.76
2023-03-02T21:26:38.091Z,44.86
2023-03-02T21:29:05.374Z,43.34
2023-03-02T21:31:32.185Z,43.27
2023-03-02T21:33:58.766Z,43.54
2023-03-02T21:36:25.707Z,43.45
2023-03-02T21:38:52.661Z,42.53
2023-03-02T21:41:19.386Z,43.42
2023-03-02T21:43:46.074Z,43.58
2023-03-02T21:46:15.065Z,42.61
2023-03-02T21:48:41.965Z,43.98
2023-03-02T21:51:11.260Z,43.82
2023-03-02T21:53:37.812Z,44.13
2023-03-02T21:56:04.639Z,43.77
2023-03-02T21:58:31.141Z,43.68
2023-03-02T22:00:57.648Z,45.31
2023-03-02T22:03:33.263Z,45.66
2023-03-02T22:05:59.728Z,45.47
2023-03-02T22:08:26.219Z,46.16
2023-03-02T22:10:52.685Z,44.07
2023-03-02T22:13:29.983Z,44.74
2023-03-02T22:16:10.864Z,44.52
2023-03-02T22:18:37.493Z,44.81
2023-03-02T22:21:26.356Z,44.47
2023-03-02T22:24:08.088Z,45.22
2023-03-02T22:26:42.182Z,45.00
2023-03-02T22:29:25.314Z,45.72
2023-03-02T22:31:55.256Z,45.13
2023-03-02T22:34:28.280Z,44.74
2023-03-02T22:36:58.751Z,44.59
2023-03-02T22:39:32.481Z,45.41
2023-03-02T22:42:06.437Z,45.79
2023-03-02T22:44:32.956Z,45.91
2023-03-02T22:47:00.367Z,45.21
2023-03-02T22:49:28.080Z,43.23
2023-03-02T22:51:57.651Z,43.53
2023-03-02T22:54:36.387Z,43.33
2023-03-02T22:57:03.532Z,44.01
2023-03-02T22:59:36.528Z,43.63
2023-03-02T23:02:15.168Z,43.75
2023-03-02T23:04:47.580Z,44.07
2023-03-02T23:07:18.823Z,43.36
2023-03-02T23:09:46.170Z,43.32
2023-03-02T23:12:27.971Z,43.28
2023-03-02T23:14:57.044Z,42.64
2023-03-02T23:17:37.831Z,43.85
2023-03-02T23:20:12.513Z,43.36
2023-03-02T23:22:39.683Z,42.77
2023-03-02T23:25:07.478Z,43.21
2023-03-02T23:27:33.978Z,43.23
2023-03-02T23:30:00.565Z,43.34
2023-03-02T23:32:27.145Z,44.04
2023-03-02T23:34:53.678Z,43.12
2023-03-02T23:37:20.147Z,43.80
2023-03-02T23:39:46.669Z,44.54
2023-03-02T23:42:13.278Z,44.69
2023-03-02T23:44:39.747Z,46.01
2023-03-02T23:47:06.258Z,45.04
2023-03-02T23:49:32.729Z,46.40
2023-03-02T23:51:59.236Z,45.99
2023-03-02T23:54:25.792Z,47.25
2023-03-02T23:56:52.256Z,45.92
2023-03-02T23:59:18.854Z,46.45
